createdAt,value
2023-05-30T00:02:15.519Z,98645.03
2023-05-30T00:04:42.333Z,98646.00
2023-05-30T00:07:08.909Z,98644.31
2023-05-30T00:09:35.974Z,98648.78
2023-05-30T00:12:02.678Z,98654.09
2023-05-30T00:14:29.274Z,98658.53
2023-05-30T00:16:57.576Z,98664.94
2023-05-30T00:19:24.317Z,98670.09
2023-05-30T00:21:51.143Z,98649.88
2023-05-30T00:24:17.814Z,98646.34
2023-05-30T00:26:44.480Z,98643.69
2023-05-30T00:29:11.358Z,98642.88
2023-05-30T00:31:40.372Z,98642.00
2023-05-30T00:34:07.504Z,98643.84
2023-05-30T00:36:34.189Z,98602.25
2023-05-30T00:39:01.005Z,98614.78
2023-05-30T00:41:28.459Z,98616.94
2023-05-30T00:43:55.075Z,98641.31
2023-05-30T00:46:25.183Z,98642.28
2023-05-30T00:48:53.920Z,98643.09
2023-05-30T00:51:21.664Z,98654.81
2023-05-30T00:53:48.370Z,98658.19
2023-05-30T00:56:15.360Z,98643.22
2023-05-30T00:58:42.580Z,98644.06
2023-05-30T01:01:10.129Z,98593.94
2023-05-30T01:03:37.529Z,98633.47
2023-05-30T01:06:04.616Z,98647.81
2023-05-30T01:08:31.991Z,98650.47
2023-05-30T01:11:44.230Z,98656.63
2023-05-30T01:14:32.452Z,98648.81
2023-05-30T01:17:13.032Z,98645.28
2023-05-30T01:19:56.103Z,98637.47
2023-05-30T01:22:34.045Z,98646.25
2023-05-30T01:25:28.425Z,98645.41
2023-05-30T01:28:05.770Z,98628.03
2023-05-30T01:30:35.195Z,98641.06
2023-05-30T01:33:02.437Z,98641.22
2023-05-30T01:35:29.493Z,98632.28
2023-05-30T01:37:59.285Z,98638.41
2023-05-30T01:40:27.883Z,98640.25
2023-05-30T01:43:14.649Z,98640.34
2023-05-30T01:46:20.372Z,98645.66
2023-05-30T01:48:58.781Z,98641.31
2023-05-30T01:51:53.487Z,98638.66
2023-05-30T01:54:22.190Z,98639.66
2023-05-30T01:56:57.393Z,98656.41
2023-05-30T01:59:27.043Z,98660.88
2023-05-30T02:01:56.498Z,98652.97
2023-05-30T02:04:25.266Z,98655.56
2023-05-30T02:06:52.560Z,98648.56
2023-05-30T02:09:19.275Z,98649.41
2023-05-30T02:11:46.039Z,98647.59
2023-05-30T02:14:12.723Z,98651.22
2023-05-30T02:16:39.340Z,98644.94
2023-05-30T02:19:07.885Z,98645.03
2023-05-30T02:21:34.665Z,98654.78
2023-05-30T02:24:01.283Z,98646.84
2023-05-30T02:26:27.910Z,98656.63
2023-05-30T02:28:57.632Z,98654.78
2023-05-30T02:31:24.566Z,98650.47
2023-05-30T02:33:51.253Z,98656.63
2023-05-30T02:36:18.083Z,98650.59
2023-05-30T02:38:44.966Z,98652.28
2023-05-30T02:41:12.553Z,98656.72
2023-05-30T02:43:41.364Z,98656.72
2023-05-30T02:46:09.099Z,98664.69
2023-05-30T02:48:39.176Z,98656.72
2023-05-30T02:51:07.041Z,98650.72
2023-05-30T02:53:34.053Z,98648.91
2023-05-30T02:56:00.773Z,98655.16
2023-05-30T02:58:46.713Z,98654.34
2023-05-30T03:01:28.890Z,98657.81
2023-05-30T03:03:55.677Z,98660.47
2023-05-30T03:09:01.373Z,98667.59
2023-05-30T03:11:28.808Z,98663.25
2023-05-30T03:13:55.916Z,98667.72
2023-05-30T03:16:22.992Z,98665.16
2023-05-30T03:18:52.644Z,98656.88
2023-05-30T03:21:19.282Z,98677.47
2023-05-30T03:23:45.907Z,98676.63
2023-05-30T03:26:13.345Z,98684.47
2023-05-30T03:28:39.978Z,98649.63
2023-05-30T03:31:15.630Z,98688.94
2023-05-30T03:33:42.566Z,98687.00
2023-05-30T03:36:11.603Z,98684.47
2023-05-30T03:38:38.866Z,98677.34
2023-05-30T03:41:06.108Z,98671.22
2023-05-30T03:43:32.746Z,98689.91
2023-05-30T03:45:59.396Z,98691.69
2023-05-30T03:48:26.064Z,98699.56
2023-05-30T03:50:52.696Z,98705.69
2023-05-30T03:53:19.444Z,98712.81
2023-05-30T03:55:46.068Z,98708.34
2023-05-30T03:58:13.191Z,98703.03
2023-05-30T04:00:42.606Z,98720.63
2023-05-30T04:03:11.238Z,98710.16
2023-05-30T04:05:38.890Z,98710.84
2023-05-30T04:08:06.223Z,98714.38
2023-05-30T04:10:32.835Z,98703.38
2023-05-30T04:12:59.473Z,98718.00
2023-05-30T04:15:26.293Z,98714.25
2023-05-30T04:17:52.927Z,98720.50
2023-05-30T04:20:20.157Z,98717.72
2023-05-30T04:22:47.005Z,98723.16
2023-05-30T04:25:15.499Z,98723.03
2023-05-30T04:27:49.947Z,98724.84
2023-05-30T04:30:18.319Z,98730.03
2023-05-30T04:32:46.381Z,98729.19
2023-05-30T04:35:16.557Z,98731.72
2023-05-30T04:37:48.590Z,98739.69
2023-05-30T04:40:15.835Z,98724.59
2023-05-30T04:42:43.219Z,98729.91
2023-05-30T04:45:11.168Z,98732.50
2023-05-30T04:47:39.671Z,98734.28
2023-05-30T04:50:07.535Z,98735.97
2023-05-30T04:52:34.318Z,98742.97
2023-05-30T04:55:01.182Z,98733.19
2023-05-30T04:59:47.975Z,98732.50
2023-05-30T05:02:14.937Z,98731.84
2023-05-30T05:04:41.707Z,98715.47
2023-05-30T05:07:08.481Z,98742.72
2023-05-30T05:09:35.033Z,98740.81
2023-05-30T05:12:02.408Z,98741.66
2023-05-30T05:14:29.076Z,98724.00
2023-05-30T05:16:55.845Z,98751.28
2023-05-30T05:19:22.669Z,98752.16
2023-05-30T05:21:49.601Z,98764.47
2023-05-30T05:24:16.236Z,98763.47
2023-05-30T05:26:43.024Z,98761.66
2023-05-30T05:29:10.217Z,98765.16
2023-05-30T05:31:36.907Z,98736.44
2023-05-30T05:34:03.703Z,98745.75
2023-05-30T05:36:31.193Z,98768.66
2023-05-30T05:38:57.834Z,98742.03
2023-05-30T05:41:24.611Z,98776.38
2023-05-30T05:43:51.233Z,98761.31
2023-05-30T05:46:17.982Z,98774.59
2023-05-30T05:48:44.758Z,98755.03
2023-05-30T05:51:12.942Z,98774.47
2023-05-30T05:55:53.649Z,98763.84
2023-05-30T05:58:20.462Z,98771.81
2023-05-30T06:00:47.259Z,98790.25
2023-05-30T06:03:14.145Z,98778.81
2023-05-30T06:05:40.859Z,98783.16
2023-05-30T06:08:07.493Z,98785.81
2023-05-30T06:10:34.037Z,98778.81
2023-05-30T06:13:00.773Z,98769.75
2023-05-30T06:15:27.360Z,98788.31
2023-05-30T06:17:54.059Z,98801.59
2023-05-30T06:20:20.910Z,98803.28
2023-05-30T06:22:50.628Z,98811.13
2023-05-30T06:25:17.585Z,98804.13
2023-05-30T06:27:44.243Z,98803.28
2023-05-30T06:30:11.103Z,98801.00
2023-05-30T06:32:37.816Z,98798.47
2023-05-30T06:35:05.025Z,98805.09
2023-05-30T06:37:31.762Z,98792.66
2023-05-30T06:39:58.340Z,98804.47
2023-05-30T06:42:25.059Z,98810.88
2023-05-30T06:44:51.842Z,98810.88
2023-05-30T06:47:18.544Z,98809.81
2023-05-30T06:49:45.247Z,98810.66
2023-05-30T06:52:11.960Z,98813.91
2023-05-30T06:54:38.965Z,98812.94
2023-05-30T06:57:06.263Z,98816.28
2023-05-30T06:59:34.830Z,98818.00
2023-05-30T07:02:03.021Z,98817.78
2023-05-30T07:04:29.854Z,98822.22
2023-05-30T07:06:57.049Z,98810.03
2023-05-30T07:09:23.738Z,98819.56
2023-05-30T07:11:52.941Z,98816.81
2023-05-30T07:14:19.486Z,98823.19
2023-05-30T07:16:46.719Z,98822.94
2023-05-30T07:19:13.743Z,98817.63
2023-05-30T07:21:40.833Z,98817.63
2023-05-30T07:24:08.026Z,98814.84
2023-05-30T07:26:35.454Z,98824.38
2023-05-30T07:29:02.182Z,98823.41
2023-05-30T07:31:28.953Z,98793.88
2023-05-30T07:33:55.766Z,98800.84
2023-05-30T07:36:22.449Z,98816.41
2023-05-30T07:38:49.753Z,98792.78
2023-05-30T07:41:16.731Z,98812.94
2023-05-30T07:43:43.293Z,98815.59
2023-05-30T07:46:10.110Z,98813.91
2023-05-30T07:48:36.851Z,98813.91
2023-05-30T07:51:03.506Z,98812.31
2023-05-30T07:53:30.085Z,98804.13
2023-05-30T07:55:56.809Z,98818.38
2023-05-30T07:58:24.979Z,98815.72
2023-05-30T08:00:51.924Z,98816.53
2023-05-30T08:03:18.578Z,98816.41
2023-05-30T08:05:47.784Z,98814.75
2023-05-30T08:08:14.649Z,98816.69
2023-05-30T08:10:41.456Z,98828.88
2023-05-30T08:13:08.100Z,98814.25
2023-05-30T08:15:35.111Z,98817.78
2023-05-30T08:18:02.451Z,98802.19
2023-05-30T08:20:30.818Z,98823.56
2023-05-30T08:22:57.716Z,98832.34
2023-05-30T08:25:34.139Z,98822.72
2023-05-30T08:28:00.934Z,98820.91
2023-05-30T08:30:29.100Z,98822.59
2023-05-30T08:32:56.332Z,98821.72
2023-05-30T08:35:22.950Z,98824.38
2023-05-30T08:37:49.701Z,98827.91
2023-05-30T08:40:17.249Z,98830.56
2023-05-30T08:42:44.098Z,98831.38
2023-05-30T08:45:11.484Z,98834.03
2023-05-30T08:47:38.544Z,98827.91
2023-05-30T08:50:08.189Z,98817.16
2023-05-30T08:52:36.629Z,98834.03
2023-05-30T08:55:15.394Z,98794.25
2023-05-30T08:57:55.933Z,98837.56
2023-05-30T09:00:23.891Z,98803.41
2023-05-30T09:02:55.483Z,98831.50
2023-05-30T09:05:22.655Z,98841.41
2023-05-30T09:07:50.525Z,98810.25
2023-05-30T09:10:17.564Z,98835.88
2023-05-30T09:12:44.326Z,98855.41
2023-05-30T09:15:11.604Z,98845.75
2023-05-30T09:17:38.554Z,98837.06
2023-05-30T09:20:09.111Z,98839.72
2023-05-30T09:22:36.645Z,98852.28
2023-05-30T09:25:06.764Z,98826.78
2023-05-30T09:27:37.112Z,98843.22
2023-05-30T09:30:11.524Z,98845.16
2023-05-30T09:32:39.879Z,98836.09
2023-05-30T09:35:15.816Z,98828.13
2023-05-30T09:37:47.986Z,98829.22
2023-05-30T09:40:18.815Z,98852.38
2023-05-30T09:42:55.692Z,98839.97
2023-05-30T09:45:24.578Z,98845.16
2023-05-30T09:47:53.680Z,98833.09
2023-05-30T09:50:25.586Z,98838.28
2023-05-30T09:52:53.088Z,98837.31
2023-05-30T09:55:25.857Z,98835.38
2023-05-30T09:57:53.333Z,98841.53
2023-05-30T10:00:25.655Z,98829.69
2023-05-30T10:02:54.894Z,98836.56
2023-05-30T10:05:22.690Z,98819.22
2023-05-30T10:07:52.135Z,98845.50
2023-05-30T10:10:19.590Z,98845.41
2023-05-30T10:12:51.426Z,98845.41
2023-05-30T10:15:19.548Z,98847.19
2023-05-30T10:17:57.070Z,98848.88
2023-05-30T10:20:27.095Z,98840.09
2023-05-30T10:22:54.217Z,98846.34
2023-05-30T10:25:22.137Z,98847.19
2023-05-30T10:27:52.732Z,98834.28
2023-05-30T10:30:34.003Z,98842.00
2023-05-30T10:33:11.408Z,98851.78
2023-05-30T10:38:00.549Z,98847.19
2023-05-30T10:40:56.721Z,98844.53
2023-05-30T10:43:44.742Z,98839.34
2023-05-30T10:46:26.295Z,98847.31
2023-05-30T10:49:01.109Z,98841.19
2023-05-30T10:51:27.974Z,98788.69
2023-05-30T10:53:57.290Z,98837.53
2023-05-30T10:56:29.785Z,98837.44
2023-05-30T10:58:57.244Z,98833.78
2023-05-30T11:01:31.290Z,98831.41
2023-05-30T11:04:04.842Z,98833.69
2023-05-30T11:06:51.821Z,98839.69
2023-05-30T11:09:19.169Z,98836.00
2023-05-30T11:11:48.272Z,98837.56
2023-05-30T11:17:07.483Z,98836.69
2023-05-30T11:19:44.039Z,98835.00
2023-05-30T11:22:18.896Z,98821.38
2023-05-30T11:24:46.427Z,98836.00
2023-05-30T11:27:17.137Z,98816.28
2023-05-30T11:29:54.949Z,98830.69
2023-05-30T11:32:24.633Z,98829.00
2023-05-30T11:35:05.219Z,98814.84
2023-05-30T11:37:34.222Z,98829.00
2023-05-30T11:40:01.204Z,98835.00
2023-05-30T11:44:59.046Z,98829.47
2023-05-30T11:47:44.859Z,98819.34
2023-05-30T11:50:13.614Z,98830.28
2023-05-30T11:52:40.936Z,98825.25
2023-05-30T11:55:09.772Z,98833.69
2023-05-30T11:57:36.854Z,98819.31
2023-05-30T12:02:30.021Z,98806.03
2023-05-30T12:05:00.893Z,98816.66
2023-05-30T12:07:27.916Z,98818.81
2023-05-30T12:09:57.925Z,98800.13
2023-05-30T12:12:24.845Z,98823.19
2023-05-30T12:14:56.314Z,98827.53
2023-05-30T12:17:25.833Z,98821.25
2023-05-30T12:20:01.003Z,98828.22
2023-05-30T12:22:32.115Z,98826.56
2023-05-30T12:24:58.924Z,98819.44
2023-05-30T12:27:27.277Z,98823.91
2023-05-30T12:29:54.541Z,98821.25
2023-05-30T12:32:28.205Z,98801.56
2023-05-30T12:34:58.996Z,98822.81
2023-05-30T12:37:25.703Z,98811.59
2023-05-30T12:39:58.322Z,98807.38
2023-05-30T12:42:26.797Z,98802.16
2023-05-30T12:44:55.509Z,98818.47
2023-05-30T12:47:23.565Z,98827.78
2023-05-30T12:49:50.774Z,98819.81
2023-05-30T12:52:19.630Z,98824.28
2023-05-30T12:54:46.759Z,98825.22
2023-05-30T12:57:13.807Z,98825.22
2023-05-30T12:59:40.964Z,98824.38
2023-05-30T13:02:10.504Z,98828.84
2023-05-30T13:04:41.041Z,98823.41
2023-05-30T13:07:10.396Z,98825.13
2023-05-30T13:09:37.490Z,98824.16
2023-05-30T13:12:05.845Z,98814.25
2023-05-30T13:14:32.578Z,98824.75
2023-05-30T13:16:59.603Z,98821.00
2023-05-30T13:19:26.627Z,98803.97
2023-05-30T13:24:10.816Z,98776.34
2023-05-30T13:26:37.567Z,98802.91
2023-05-30T13:29:05.955Z,98810.97
2023-05-30T13:31:34.485Z,98817.16
2023-05-30T13:34:01.897Z,98814.59
2023-05-30T13:36:28.708Z,98812.94
2023-05-30T13:38:55.705Z,98804.38
2023-05-30T13:41:22.694Z,98814.59
2023-05-30T13:43:50.189Z,98815.31
2023-05-30T13:46:16.889Z,98809.06
2023-05-30T13:48:44.258Z,98800.72
2023-05-30T13:51:11.979Z,98813.41
2023-05-30T13:53:58.244Z,98807.22
2023-05-30T13:56:26.950Z,98815.19
2023-05-30T13:58:54.991Z,98815.31
2023-05-30T14:01:23.595Z,98816.28
2023-05-30T14:03:50.920Z,98809.28
2023-05-30T14:06:17.657Z,98810.38
2023-05-30T14:08:44.416Z,98820.91
2023-05-30T14:11:12.043Z,98823.56
2023-05-30T14:13:40.853Z,98819.91
2023-05-30T14:16:08.081Z,98817.25
2023-05-30T14:18:37.618Z,98815.81
2023-05-30T14:21:04.740Z,98830.44
2023-05-30T14:23:33.181Z,98821.50
2023-05-30T14:25:59.819Z,98828.59
2023-05-30T14:28:26.764Z,98825.97
2023-05-30T14:30:53.516Z,98813.44
2023-05-30T14:33:20.352Z,98767.31
2023-05-30T14:35:47.049Z,98838.41
2023-05-30T14:38:13.594Z,98837.31
2023-05-30T14:40:40.384Z,98810.13
2023-05-30T14:43:08.204Z,98816.09
2023-05-30T14:45:37.947Z,98834.66
2023-05-30T14:48:06.091Z,98813.66
2023-05-30T14:50:33.522Z,98829.34
2023-05-30T14:53:00.408Z,98824.84
2023-05-30T14:55:27.470Z,98830.03
2023-05-30T14:57:54.287Z,98830.16
2023-05-30T15:00:21.497Z,98832.97
2023-05-30T15:02:48.512Z,98830.44
2023-05-30T15:05:18.065Z,98828.59
2023-05-30T15:07:44.630Z,98831.25
2023-05-30T15:10:11.405Z,98832.97
2023-05-30T15:12:37.961Z,98829.47
2023-05-30T15:15:05.138Z,98829.34
2023-05-30T15:17:32.018Z,98832.81
2023-05-30T15:19:59.042Z,98838.00
2023-05-30T15:22:25.677Z,98832.69
2023-05-30T15:24:52.406Z,98830.03
2023-05-30T15:27:19.178Z,98837.03
2023-05-30T15:29:46.010Z,98830.91
2023-05-30T15:32:12.625Z,98813.03
2023-05-30T15:34:43.723Z,98836.09
2023-05-30T15:37:10.734Z,98829.22
2023-05-30T15:39:38.215Z,98835.25
2023-05-30T15:42:05.257Z,98836.09
2023-05-30T15:44:32.012Z,98833.28
2023-05-30T15:47:00.016Z,98838.59
2023-05-30T15:49:27.304Z,98833.06
2023-05-30T15:51:56.270Z,98838.25
2023-05-30T15:54:25.738Z,98813.63
2023-05-30T15:56:52.564Z,98837.03
2023-05-30T15:59:19.269Z,98835.22
2023-05-30T16:01:46.002Z,98840.53
2023-05-30T16:04:13.387Z,98839.69
2023-05-30T16:06:40.775Z,98841.38
2023-05-30T16:09:07.570Z,98835.94
2023-05-30T16:11:34.651Z,98844.75
2023-05-30T16:14:01.516Z,98844.75
2023-05-30T16:16:31.190Z,98846.44
2023-05-30T16:18:57.836Z,98851.63
2023-05-30T16:21:25.104Z,98853.31
2023-05-30T16:23:51.721Z,98842.94
2023-05-30T16:26:18.438Z,98849.84
2023-05-30T16:28:45.113Z,98857.53
2023-05-30T16:31:11.860Z,98855.84
2023-05-30T16:33:38.539Z,98851.41
2023-05-30T16:36:12.182Z,98838.97
2023-05-30T16:38:41.634Z,98867.22
2023-05-30T16:41:13.454Z,98870.00
2023-05-30T16:43:42.253Z,98871.78
2023-05-30T16:46:10.059Z,98863.81
2023-05-30T16:48:37.126Z,98867.44
2023-05-30T16:51:03.994Z,98871.09
2023-05-30T16:53:31.410Z,98867.56
2023-05-30T16:55:58.349Z,98872.88
2023-05-30T16:58:25.634Z,98872.06
2023-05-30T17:00:52.447Z,98882.78
2023-05-30T17:03:19.291Z,98890.66
2023-05-30T17:05:46.134Z,98880.75
2023-05-30T17:08:15.512Z,98894.28
2023-05-30T17:10:43.257Z,98888.09
2023-05-30T17:13:10.673Z,98897.06
2023-05-30T17:15:37.443Z,98889.19
2023-05-30T17:18:04.326Z,98899.81
2023-05-30T17:20:31.670Z,98897.31
2023-05-30T17:22:58.657Z,98910.59
2023-05-30T17:25:26.974Z,98901.28
2023-05-30T17:27:58.238Z,98905.53
2023-05-30T17:30:25.342Z,98903.94
2023-05-30T17:32:52.330Z,98912.16
2023-05-30T17:35:19.137Z,98908.69
2023-05-30T17:37:46.374Z,98909.03
2023-05-30T17:40:13.287Z,98906.97
2023-05-30T17:42:40.365Z,98911.44
2023-05-30T17:45:07.810Z,98915.06
2023-05-30T17:47:34.338Z,98914.94
2023-05-30T17:50:01.035Z,98917.63
2023-05-30T17:52:27.693Z,98921.97
2023-05-30T17:54:54.352Z,98922.66
2023-05-30T17:57:21.050Z,98918.22
2023-05-30T17:59:47.730Z,98930.50
2023-05-30T18:02:14.594Z,98934.25
2023-05-30T18:04:41.679Z,98938.59
2023-05-30T18:07:08.318Z,98934.63
2023-05-30T18:09:37.743Z,98937.66
2023-05-30T18:12:07.168Z,98932.56
2023-05-30T18:14:34.108Z,98942.97
2023-05-30T18:17:00.962Z,98937.03
2023-05-30T18:19:28.087Z,98936.44
2023-05-30T18:21:56.763Z,98943.66
2023-05-30T18:24:25.058Z,98945.94
2023-05-30T18:26:52.081Z,98948.22
2023-05-30T18:29:19.118Z,98947.84
2023-05-30T18:31:45.706Z,98950.16
2023-05-30T18:34:13.007Z,98957.59
2023-05-30T18:36:39.636Z,98959.75
2023-05-30T18:39:06.429Z,98967.38
2023-05-30T18:41:33.097Z,98963.47
2023-05-30T18:43:59.793Z,98955.50
2023-05-30T18:46:26.808Z,98973.69
2023-05-30T18:48:55.999Z,98966.81
2023-05-30T18:51:23.034Z,98974.91
2023-05-30T18:53:51.538Z,98972.50
2023-05-30T18:56:18.377Z,98977.81
2023-05-30T18:58:45.134Z,98983.81
2023-05-30T19:01:12.305Z,98981.91
2023-05-30T19:03:41.402Z,98984.84
2023-05-30T19:06:08.465Z,98974.78
2023-05-30T19:08:37.903Z,98994.25
2023-05-30T19:11:05.091Z,98991.66
2023-05-30T19:13:31.792Z,98992.34
2023-05-30T19:15:58.542Z,99009.09
2023-05-30T19:18:26.189Z,99010.50
2023-05-30T19:20:58.054Z,99023.25
2023-05-30T19:23:24.817Z,98994.28
2023-05-30T19:25:51.468Z,99028.06
2023-05-30T19:28:18.199Z,99025.72
2023-05-30T19:30:45.189Z,99023.53
2023-05-30T19:33:13.021Z,99029.78
2023-05-30T19:35:39.780Z,99024.72
2023-05-30T19:38:06.451Z,99030.22
2023-05-30T19:40:33.243Z,99013.56
2023-05-30T19:43:00.020Z,99031.88
2023-05-30T19:45:27.568Z,99015.91
2023-05-30T19:47:55.040Z,99027.75
2023-05-30T19:50:22.482Z,99028.81
2023-05-30T19:52:52.085Z,99026.25
2023-05-30T19:55:18.752Z,99015.16
2023-05-30T19:57:45.593Z,99030.84
2023-05-30T20:00:15.521Z,99023.97
2023-05-30T20:02:42.234Z,99024.06
2023-05-30T20:05:09.396Z,99037.31
2023-05-30T20:07:37.377Z,99039.31
2023-05-30T20:10:04.663Z,99037.66
2023-05-30T20:12:31.252Z,99039.75
2023-05-30T20:14:57.976Z,99047.09
2023-05-30T20:17:24.572Z,99040.94
2023-05-30T20:19:52.080Z,99046.38
2023-05-30T20:22:19.288Z,99050.06
2023-05-30T20:24:46.294Z,99049.31
2023-05-30T20:27:14.065Z,99050.25
2023-05-30T20:29:40.851Z,99051.94
2023-05-30T20:32:08.217Z,99054.47
2023-05-30T20:34:34.899Z,99057.88
2023-05-30T20:37:01.602Z,99060.44
2023-05-30T20:39:28.234Z,99061.19
2023-05-30T20:41:54.774Z,99066.38
2023-05-30T20:44:21.503Z,99065.56
2023-05-30T20:46:49.080Z,99060.66
2023-05-30T20:49:15.948Z,99065.56
2023-05-30T20:51:42.847Z,99057.56
2023-05-30T20:54:10.005Z,99070.94
2023-05-30T20:56:36.644Z,99069.28
2023-05-30T20:59:03.293Z,99071.06
2023-05-30T21:01:29.946Z,99065.94
2023-05-30T21:03:56.793Z,99068.41
2023-05-30T21:06:23.585Z,99070.28
2023-05-30T21:08:50.643Z,99065.09
2023-05-30T21:11:17.449Z,99064.25
2023-05-30T21:13:45.469Z,99056.22
2023-05-30T21:16:12.941Z,99083.00
2023-05-30T21:18:40.085Z,99071.69
2023-05-30T21:21:08.757Z,99075.41
2023-05-30T21:23:35.484Z,99084.19
2023-05-30T21:26:02.387Z,99076.34
2023-05-30T21:28:29.082Z,99081.84
2023-05-30T21:30:57.053Z,99076.78
2023-05-30T21:33:24.342Z,99012.25
2023-05-30T21:35:51.209Z,99074.31
2023-05-30T21:38:18.336Z,99034.72
2023-05-30T21:40:45.505Z,99076.44
2023-05-30T21:45:45.010Z,99080.25
2023-05-30T21:48:12.333Z,99085.13
2023-05-30T21:50:39.115Z,99089.03
2023-05-30T21:53:08.770Z,99093.81
2023-05-30T21:55:38.411Z,99090.69
2023-05-30T21:58:05.381Z,99092.94
2023-05-30T22:00:32.021Z,99090.56
2023-05-30T22:02:58.871Z,99088.97
2023-05-30T22:05:28.480Z,99092.66
2023-05-30T22:07:55.097Z,99093.72
2023-05-30T22:10:21.800Z,99092.13
2023-05-30T22:12:48.496Z,99094.78
2023-05-30T22:15:17.631Z,99093.19
2023-05-30T22:17:44.420Z,99094.25
2023-05-30T22:20:11.300Z,99097.06
2023-05-30T22:22:38.190Z,99090.19
2023-05-30T22:25:05.060Z,99095.59
2023-05-30T22:27:31.751Z,99094.00
2023-05-30T22:29:58.486Z,99091.44
2023-05-30T22:32:26.556Z,99090.88
2023-05-30T22:34:53.181Z,99094.59
2023-05-30T22:37:19.944Z,99087.06
2023-05-30T22:39:46.481Z,99087.28
2023-05-30T22:42:14.664Z,99085.69
2023-05-30T22:44:41.741Z,99090.09
2023-05-30T22:47:08.750Z,99094.44
2023-05-30T22:49:36.761Z,99086.69
2023-05-30T22:52:04.393Z,99084.06
2023-05-30T22:54:31.555Z,99084.06
2023-05-30T22:56:58.208Z,99084.28
2023-05-30T22:59:25.976Z,99080.03
2023-05-30T23:01:57.592Z,99083.50
2023-05-30T23:04:25.403Z,99081.91
2023-05-30T23:06:52.146Z,99075.97
2023-05-30T23:09:19.424Z,99085.72
2023-05-30T23:11:48.061Z,99082.31
2023-05-30T23:14:14.933Z,99087.72
2023-05-30T23:16:41.597Z,99087.88
2023-05-30T23:19:08.321Z,99088.84
2023-05-30T23:23:59.125Z,99083.88
2023-05-30T23:26:26.520Z,99086.66
2023-05-30T23:28:53.130Z,99083.28
2023-05-30T23:31:20.007Z,99083.34
2023-05-30T23:33:47.356Z,99080.72
2023-05-30T23:36:13.985Z,99080.72
2023-05-30T23:38:42.399Z,99076.59
2023-05-30T23:41:09.057Z,99076.75
2023-05-30T23:43:35.691Z,99083.97
2023-05-30T23:46:02.501Z,99080.44
2023-05-30T23:48:29.096Z,99083.03
2023-05-30T23:50:56.851Z,99083.84
2023-05-30T23:53:23.390Z,99082.03
2023-05-30T23:55:50.092Z,99078.56
2023-05-30T23:58:16.733Z,99082.16
